Time;durP1;ratioP1;P1;durP2;ratioP2;P2;SDS_P1;SDS_P2;PMS_P1;PMS_P2;Temp;Humidity;BMP_temperature;BMP_pressure;BME280_temperature;BME280_humidity;BME280_pressure;Samples;Min_cycle;Max_cycle;Signal;HPM_P1;HPM_P2
2023/03/07 00:01:35;;;;;;;38.07;25.60;;;;;;;4.35;67.45;98967.41;5029896;28;97318;-84
2023/03/07 00:04:01;;;;;;;37.30;25.53;;;;;;;4.12;68.26;98949.06;5009031;28;98567;-84
2023/03/07 00:06:27;;;;;;;36.70;25.50;;;;;;;4.23;68.28;98971.25;5015268;28;100804;-84
2023/03/07 00:08:56;;;;;;;36.43;25.30;;;;;;;4.31;67.89;98968.44;5032621;28;101408;-84
2023/03/07 00:11:21;;;;;;;38.37;25.93;;;;;;;4.38;67.79;98956.09;5033102;27;97491;-84
2023/03/07 00:13:47;;;;;;;37.43;26.27;;;;;;;4.31;67.80;98950.25;5033756;28;97137;-84
2023/03/07 00:16:15;;;;;;;36.43;25.60;;;;;;;4.31;67.98;98951.09;5021853;28;100841;-84
2023/03/07 00:18:41;;;;;;;39.13;27.03;;;;;;;4.23;67.91;98960.84;5032618;28;101661;-84
2023/03/07 00:21:09;;;;;;;38.43;26.93;;;;;;;4.24;68.20;98954.75;5016265;28;99998;-83
2023/03/07 00:23:36;;;;;;;35.43;25.53;;;;;;;4.24;67.82;98941.75;4999029;28;97046;-84
2023/03/07 00:26:15;;;;;;;39.47;26.50;;;;;;;4.39;67.75;98953.44;5029828;27;98521;-84
2023/03/07 00:28:42;;;;;;;36.67;26.40;;;;;;;4.38;67.75;98956.94;4999547;28;101508;-86
2023/03/07 00:31:10;;;;;;;37.20;26.37;;;;;;;4.30;67.67;98933.81;5032152;27;97310;-84
2023/03/07 00:33:35;;;;;;;36.07;27.60;;;;;;;4.36;67.93;98952.69;5032889;27;96903;-85
2023/03/07 00:36:03;;;;;;;36.73;26.37;;;;;;;4.30;68.08;98940.72;5032259;28;101667;-85
2023/03/07 00:38:29;;;;;;;40.93;26.30;;;;;;;4.22;67.89;98945.31;5027144;27;100729;-85
2023/03/07 00:41:10;;;;;;;37.50;25.47;;;;;;;4.22;68.00;98937.53;4998351;28;98027;-85
2023/03/07 00:43:36;;;;;;;44.97;27.33;;;;;;;4.19;67.93;98922.00;5033038;27;96925;-84
2023/03/07 00:46:02;;;;;;;36.37;25.67;;;;;;;4.32;67.83;98944.97;4994900;28;101362;-84
2023/03/07 00:48:28;;;;;;;39.00;28.00;;;;;;;4.31;67.64;98929.47;5024428;28;100768;-84
2023/03/07 00:50:55;;;;;;;41.90;27.63;;;;;;;4.35;67.88;98935.41;5030114;28;97059;-85
2023/03/07 00:53:23;;;;;;;36.17;26.57;;;;;;;4.39;67.67;98932.63;5012302;28;97257;-84
2023/03/07 00:55:53;;;;;;;38.33;25.43;;;;;;;4.30;68.14;98935.53;5029916;27;100482;-85
2023/03/07 00:58:19;;;;;;;37.53;25.80;;;;;;;4.23;67.89;98927.06;5049154;27;98405;-84
2023/03/07 01:00:45;;;;;;;34.80;23.60;;;;;;;4.32;68.02;98925.94;5015384;28;97141;-83
2023/03/07 01:03:10;;;;;;;33.53;24.43;;;;;;;4.35;67.55;98912.00;5015152;28;98093;-84
2023/03/07 01:05:40;;;;;;;36.43;24.33;;;;;;;4.36;68.00;98917.16;5015446;28;102004;-85
2023/03/07 01:08:06;;;;;;;34.43;23.53;;;;;;;4.40;67.71;98912.72;5014620;28;100287;-85
2023/03/07 01:10:32;;;;;;;38.00;24.53;;;;;;;4.34;67.83;98912.94;4995618;28;96770;-84
2023/03/07 01:12:59;;;;;;;38.40;25.30;;;;;;;4.18;68.44;98908.19;5027424;28;99945;-85
2023/03/07 01:15:25;;;;;;;37.50;25.10;;;;;;;4.18;68.09;98895.19;5031999;28;98437;-85
2023/03/07 01:17:50;;;;;;;36.47;26.10;;;;;;;4.08;67.66;98871.25;5011120;28;99666;-85
2023/03/07 01:20:17;;;;;;;37.27;26.17;;;;;;;4.30;67.87;98893.97;5032636;28;97242;-85
2023/03/07 01:22:42;;;;;;;46.73;30.63;;;;;;;4.27;67.35;98886.25;5012582;28;97237;-85
2023/03/07 01:25:09;;;;;;;45.83;29.17;;;;;;;4.32;67.68;98887.81;5014632;27;101793;-84
2023/03/07 01:27:35;;;;;;;44.07;30.13;;;;;;;4.23;67.85;98876.88;5015242;28;101662;-84
2023/03/07 01:30:00;;;;;;;44.07;29.87;;;;;;;4.21;67.88;98886.47;4992206;28;97158;-84
2023/03/07 01:32:26;;;;;;;46.00;31.27;;;;;;;4.06;67.72;98854.88;5014149;27;97072;-85
2023/03/07 01:34:52;;;;;;;49.47;32.07;;;;;;;4.11;68.06;98878.09;5014057;28;101405;-84
2023/03/07 01:37:18;;;;;;;43.70;30.47;;;;;;;4.01;68.48;98869.72;5013521;28;99576;-85
2023/03/07 01:39:44;;;;;;;46.77;30.60;;;;;;;3.92;68.68;98877.81;5016080;28;96772;-84
2023/03/07 01:42:14;;;;;;;43.23;29.00;;;;;;;3.90;69.02;98868.34;5024898;27;97058;-84
2023/03/07 01:45:34;;;;;;;42.37;29.00;;;;;;;3.97;68.78;98873.31;5015457;28;99904;-84
2023/03/07 01:48:00;;;;;;;44.77;29.80;;;;;;;3.97;68.52;98869.88;4932914;28;100521;-85
2023/03/07 01:50:26;;;;;;;45.97;29.67;;;;;;;3.84;68.51;98843.47;5003852;28;97943;-85
2023/03/07 01:52:57;;;;;;;46.30;30.83;;;;;;;3.93;68.47;98860.50;5014960;28;97608;-84
2023/03/07 01:55:26;;;;;;;48.20;31.20;;;;;;;3.81;68.83;98852.19;5014453;27;101746;-84
2023/03/07 01:57:56;;;;;;;52.57;33.97;;;;;;;3.83;68.44;98858.16;5014404;28;101831;-84
2023/03/07 02:00:27;;;;;;;54.63;36.20;;;;;;;3.85;68.81;98851.19;4997900;27;98424;-84
2023/03/07 02:03:28;;;;;;;57.33;36.67;;;;;;;3.70;69.02;98858.59;5027895;27;97580;-85
2023/03/07 02:06:06;;;;;;;55.10;34.47;;;;;;;3.64;69.36;98857.03;5011705;28;98133;-85
2023/03/07 02:08:33;;;;;;;51.07;33.93;;;;;;;3.55;69.57;98860.72;5014209;28;100608;-85
2023/03/07 02:10:59;;;;;;;49.50;33.57;;;;;;;3.47;69.67;98843.69;5014400;28;97296;-85
2023/03/07 02:13:25;;;;;;;52.60;34.20;;;;;;;3.59;69.67;98848.50;5011662;28;96806;-84
2023/03/07 02:15:51;;;;;;;53.87;34.43;;;;;;;3.68;69.21;98849.97;5014616;27;101746;-85
2023/03/07 02:18:19;;;;;;;50.37;32.43;;;;;;;3.78;69.17;98852.28;5030552;27;101481;-85
2023/03/07 02:20:52;;;;;;;51.50;33.33;;;;;;;3.85;68.81;98851.19;5008805;28;97207;-84
2023/03/07 02:23:27;;;;;;;51.37;32.70;;;;;;;3.92;68.66;98840.59;5034191;27;97247;-85
2023/03/07 02:26:03;;;;;;;51.97;32.70;;;;;;;3.80;68.39;98834.03;5031210;27;101486;-84
2023/03/07 02:28:29;;;;;;;50.13;31.93;;;;;;;3.89;68.33;98851.94;5029541;27;101193;-85
2023/03/07 02:30:54;;;;;;;51.80;33.40;;;;;;;3.96;68.25;98840.47;5029540;28;96844;-84
2023/03/07 02:33:23;;;;;;;52.70;34.07;;;;;;;4.00;68.11;98838.63;5048252;27;97489;-85
2023/03/07 02:35:54;;;;;;;50.13;32.93;;;;;;;3.95;68.19;98838.75;5009575;28;99339;-85
2023/03/07 02:38:21;;;;;;;51.37;34.23;;;;;;;3.85;68.36;98835.59;5001632;28;101284;-84
2023/03/07 02:40:47;;;;;;;56.37;34.70;;;;;;;3.74;68.45;98837.66;5013240;28;97588;-85
2023/03/07 02:43:13;;;;;;;55.67;33.97;;;;;;;3.71;68.51;98827.38;5026954;28;96804;-85
2023/03/07 02:45:39;;;;;;;61.57;35.53;;;;;;;3.75;68.65;98822.94;5043350;27;98975;-85
2023/03/07 02:48:05;;;;;;;51.73;33.30;;;;;;;3.77;68.51;98822.00;5012497;28;100712;-85
2023/03/07 02:50:31;;;;;;;52.10;33.43;;;;;;;3.78;68.84;98823.72;5013990;28;97338;-86
2023/03/07 02:52:56;;;;;;;52.03;33.37;;;;;;;3.77;68.62;98828.94;5007261;28;97813;-86
2023/03/07 02:55:22;;;;;;;56.93;35.10;;;;;;;3.70;68.90;98822.25;5013090;28;100582;-87
2023/03/07 02:57:54;;;;;;;61.90;37.67;;;;;;;3.69;68.45;98799.78;5029879;27;101292;-85
2023/03/07 03:00:21;;;;;;;65.87;40.10;;;;;;;3.61;68.55;98813.84;5030113;27;96847;-85
2023/03/07 03:02:47;;;;;;;67.43;41.67;;;;;;;3.36;69.11;98808.50;5016587;28;96805;-86
2023/03/07 03:05:12;;;;;;;66.33;39.97;;;;;;;3.23;69.86;98809.75;5009635;28;99483;-86
2023/03/07 03:07:38;;;;;;;63.90;37.47;;;;;;;3.21;70.38;98808.09;4994195;28;100324;-86
2023/03/07 03:10:04;;;;;;;60.47;37.43;;;;;;;3.12;70.48;98810.06;5012308;28;97224;-86
2023/03/07 03:12:31;;;;;;;61.97;37.57;;;;;;;3.19;70.54;98818.50;4996544;28;97078;-87
2023/03/07 03:14:57;;;;;;;59.50;35.63;;;;;;;3.28;70.17;98812.22;5012846;28;100189;-87
2023/03/07 03:17:23;;;;;;;57.07;35.60;;;;;;;3.37;69.91;98809.34;4993371;28;101396;-85
2023/03/07 03:19:49;;;;;;;56.10;35.30;;;;;;;3.40;69.49;98796.28;5012776;28;97195;-85
2023/03/07 03:22:14;;;;;;;53.40;34.63;;;;;;;3.47;69.57;98800.41;4997218;28;96883;-85
2023/03/07 03:24:44;;;;;;;55.07;34.73;;;;;;;3.42;69.15;98799.69;4997399;28;101919;-86
2023/03/07 03:27:13;;;;;;;52.37;32.77;;;;;;;3.38;69.54;98795.50;5024013;27;97967;-86
2023/03/07 03:29:40;;;;;;;51.67;33.47;;;;;;;3.47;69.11;98792.63;5029751;27;97500;-85
2023/03/07 03:32:06;;;;;;;52.03;33.07;;;;;;;3.36;69.28;98779.97;5029033;27;96911;-86
2023/03/07 03:34:32;;;;;;;50.43;33.00;;;;;;;3.45;69.41;98785.78;5032602;27;101741;-85
2023/03/07 03:36:58;;;;;;;50.37;32.60;;;;;;;3.46;69.13;98790.94;5026046;28;101600;-86
2023/03/07 03:39:24;;;;;;;50.63;31.97;;;;;;;3.28;69.44;98776.75;5004841;28;97289;-86
2023/03/07 03:41:55;;;;;;;50.80;31.33;;;;;;;3.30;69.44;98779.31;5007788;27;98003;-86
2023/03/07 03:44:22;;;;;;;50.37;32.73;;;;;;;3.30;69.20;98780.16;5007753;28;100861;-86
2023/03/07 03:46:47;;;;;;;50.00;33.13;;;;;;;3.26;69.34;98775.97;5028420;27;101393;-86
2023/03/07 03:49:15;;;;;;;46.93;31.73;;;;;;;3.22;69.51;98773.47;5030733;27;97492;-86
2023/03/07 03:51:42;;;;;;;50.37;32.10;;;;;;;3.28;69.14;98768.13;4998826;27;97176;-85
2023/03/07 03:54:08;;;;;;;49.00;31.87;;;;;;;3.14;69.27;98755.53;5013768;28;101390;-86
2023/03/07 03:56:35;;;;;;;47.53;31.17;;;;;;;3.05;70.04;98768.78;5012846;27;102215;-85
2023/03/07 03:59:01;;;;;;;47.43;30.50;;;;;;;3.14;69.47;98752.94;5006131;28;98025;-86
2023/03/07 04:01:27;;;;;;;48.87;30.40;;;;;;;3.08;70.04;98764.34;5046233;27;97142;-85
2023/03/07 04:03:54;;;;;;;47.73;31.37;;;;;;;2.96;70.33;98759.50;5013132;28;100559;-85
2023/03/07 04:06:26;;;;;;;46.73;30.47;;;;;;;2.99;70.06;98761.16;5034325;28;101361;-85
2023/03/07 04:08:52;;;;;;;46.37;30.73;;;;;;;2.91;69.90;98757.06;5029438;28;96943;-89
2023/03/07 04:11:18;;;;;;;48.37;31.80;;;;;;;3.02;70.37;98763.69;5015090;27;97429;-86
2023/03/07 04:13:45;;;;;;;49.50;31.87;;;;;;;2.92;70.28;98761.34;5009526;27;98808;-86
2023/03/07 04:16:11;;;;;;;44.30;28.10;;;;;;;2.79;70.67;98749.59;5028907;27;98388;-86
2023/03/07 04:18:37;;;;;;;45.73;30.43;;;;;;;2.84;70.04;98736.53;5000722;28;98064;-86
2023/03/07 04:21:04;;;;;;;41.13;27.37;;;;;;;2.82;70.85;98752.16;5025197;27;97131;-86
2023/03/07 04:23:31;;;;;;;44.07;28.10;;;;;;;2.85;69.88;98731.31;4995800;28;100526;-86
2023/03/07 04:25:58;;;;;;;42.37;27.83;;;;;;;2.89;70.35;98748.47;5026839;27;101663;-86
2023/03/07 04:28:43;;;;;;;38.23;26.47;;;;;;;2.89;70.16;98748.47;4992724;28;96796;-86
2023/03/07 04:31:16;;;;;;;41.00;26.73;;;;;;;2.88;69.60;98707.03;5025842;28;97071;-86
2023/03/07 04:33:43;;;;;;;37.10;25.33;;;;;;;3.03;69.79;98735.13;5008186;28;101698;-87
2023/03/07 04:36:10;;;;;;;39.67;26.03;;;;;;;3.10;69.86;98738.38;5027387;27;99827;-86
2023/03/07 04:38:37;;;;;;;37.47;25.57;;;;;;;3.05;69.50;98732.47;4992391;28;97007;-85
2023/03/07 04:41:07;;;;;;;44.07;27.47;;;;;;;2.91;69.81;98719.94;5026840;27;97002;-87
2023/03/07 04:43:33;;;;;;;39.20;26.07;;;;;;;3.02;70.20;98735.16;5025864;27;100554;-86
2023/03/07 04:45:59;;;;;;;44.00;27.63;;;;;;;3.17;69.73;98734.72;5030907;27;101548;-86
2023/03/07 04:48:26;;;;;;;45.30;28.43;;;;;;;3.21;69.79;98722.53;5016340;28;97183;-85
2023/03/07 04:50:52;;;;;;;41.63;28.23;;;;;;;3.17;69.51;98720.03;5030502;27;97646;-85
2023/03/07 04:53:19;;;;;;;44.40;29.33;;;;;;;3.03;69.65;98716.13;5014076;28;98897;-86
2023/03/07 04:55:45;;;;;;;40.37;25.87;;;;;;;2.90;70.55;98713.03;5015437;28;101410;-86
2023/03/07 04:58:12;;;;;;;41.37;25.83;;;;;;;2.99;69.93;98715.34;5014975;28;97225;-86
2023/03/07 05:00:40;;;;;;;42.50;26.53;;;;;;;2.93;69.64;98705.16;5014570;28;96841;-86
2023/03/07 05:03:06;;;;;;;40.77;26.57;;;;;;;3.03;69.74;98714.38;4994661;28;101684;-86
2023/03/07 05:05:33;;;;;;;35.67;24.37;;;;;;;2.95;69.84;98706.81;5031744;27;100288;-86
2023/03/07 05:07:58;;;;;;;42.53;25.13;;;;;;;2.89;69.95;98690.59;5008857;28;98192;-86
2023/03/07 05:10:24;;;;;;;38.93;24.73;;;;;;;2.80;70.53;98696.91;5014690;27;97472;-85
2023/03/07 05:12:49;;;;;;;38.40;25.23;;;;;;;2.88;70.42;98699.25;5011457;28;100070;-87
2023/03/07 05:15:15;;;;;;;38.07;23.07;;;;;;;2.68;69.82;98641.09;5031320;28;101162;-87
2023/03/07 05:17:41;;;;;;;36.33;24.60;;;;;;;2.91;69.45;98675.88;5013393;28;97176;-87
2023/03/07 05:20:09;;;;;;;39.07;25.53;;;;;;;2.99;69.62;98681.66;5017462;28;97525;-87
2023/03/07 05:22:35;;;;;;;45.20;24.13;;;;;;;2.85;69.33;98676.91;5016866;28;100856;-87
2023/03/07 05:25:01;;;;;;;33.27;22.23;;;;;;;2.85;69.88;98686.38;5027990;27;101667;-87
2023/03/07 05:27:27;;;;;;;36.27;24.80;;;;;;;2.83;69.73;98672.66;5034328;27;97542;-88
2023/03/07 05:29:53;;;;;;;37.63;23.90;;;;;;;2.90;69.29;98698.31;5051282;27;97164;-87
2023/03/07 05:32:19;;;;;;;33.87;22.47;;;;;;;2.84;69.73;98682.09;5017214;28;101189;-87
2023/03/07 05:34:45;;;;;;;35.00;23.10;;;;;;;2.74;68.95;98670.31;5033807;27;101070;-87
2023/03/07 05:37:12;;;;;;;32.47;22.27;;;;;;;2.65;69.58;98684.38;5017079;27;97274;-87
2023/03/07 05:39:37;;;;;;;33.13;22.70;;;;;;;2.57;69.19;98675.97;5029389;28;97247;-87
2023/03/07 05:42:03;;;;;;;36.10;23.23;;;;;;;2.56;69.37;98684.63;5006303;28;101177;-87
2023/03/07 05:44:30;;;;;;;34.33;23.37;;;;;;;2.51;69.77;98686.50;5024337;27;101282;-88
2023/03/07 05:46:56;;;;;;;32.60;22.83;;;;;;;2.52;69.17;98675.25;5032340;27;96820;-87
2023/03/07 05:49:22;;;;;;;40.67;25.40;;;;;;;2.47;69.47;98680.53;5015732;28;97050;-87
2023/03/07 05:51:47;;;;;;;35.13;22.03;;;;;;;2.44;69.42;98676.31;4999193;28;101422;-86
2023/03/07 05:54:13;;;;;;;33.87;22.47;;;;;;;2.40;69.27;98671.25;5014965;28;101046;-87
2023/03/07 05:56:38;;;;;;;33.77;21.60;;;;;;;2.41;69.58;98668.59;5029768;27;97060;-84
2023/03/07 05:59:06;;;;;;;35.03;22.20;;;;;;;2.47;68.92;98677.94;5006129;28;98322;-84
2023/03/07 06:01:33;;;;;;;33.67;22.60;;;;;;;2.51;68.68;98666.63;5026435;28;101510;-90
2023/03/07 06:03:59;;;;;;;30.63;21.03;;;;;;;2.50;68.90;98662.31;5019882;27;100289;-91
2023/03/07 06:06:24;;;;;;;31.50;22.03;;;;;;;2.50;68.89;98662.31;5018925;28;97229;-91
2023/03/07 06:08:51;;;;;;;32.07;21.13;;;;;;;2.47;68.93;98668.47;5018372;27;97622;-89
2023/03/07 06:11:17;;;;;;;32.87;20.47;;;;;;;2.54;68.86;98648.41;5032527;28;100010;-91
2023/03/07 06:13:42;;;;;;;29.00;20.60;;;;;;;2.68;69.11;98659.22;5011045;28;101328;-90
2023/03/07 06:16:08;;;;;;;33.33;21.23;;;;;;;2.78;68.43;98653.78;5027674;27;96811;-90
2023/03/07 06:18:36;;;;;;;31.37;20.53;;;;;;;2.82;68.42;98658.84;5016422;27;96976;-90
2023/03/07 06:21:06;;;;;;;31.17;21.57;;;;;;;2.75;68.33;98651.28;5032600;27;101540;-88
2023/03/07 06:23:36;;;;;;;29.80;20.57;;;;;;;2.83;68.55;98650.16;5027853;27;100406;-89
2023/03/07 06:26:07;;;;;;;30.33;20.40;;;;;;;2.89;67.80;98654.31;5016974;28;97153;-89
2023/03/07 06:28:33;;;;;;;33.53;21.40;;;;;;;2.67;68.78;98630.75;5016541;27;97407;-85
2023/03/07 06:31:00;;;;;;;29.93;20.03;;;;;;;2.84;68.43;98649.25;5003035;28;101178;-86
2023/03/07 06:33:26;;;;;;;30.47;21.00;;;;;;;3.00;68.25;98646.25;4994246;28;101498;-87
2023/03/07 06:35:52;;;;;;;30.03;21.27;;;;;;;3.14;67.53;98644.91;5030474;28;96805;-90
2023/03/07 06:38:17;;;;;;;32.17;20.37;;;;;;;3.17;66.82;98646.53;5011895;28;97342;-89
2023/03/07 06:40:43;;;;;;;35.83;22.60;;;;;;;2.98;67.24;98620.34;5011018;27;100235;-87
2023/03/07 06:43:11;;;;;;;33.03;21.30;;;;;;;3.22;66.84;98623.06;5030942;28;101677;-87
2023/03/07 06:45:37;;;;;;;34.53;21.53;;;;;;;3.41;66.91;98642.38;5017429;28;97360;-87
2023/03/07 06:48:03;;;;;;;32.70;21.83;;;;;;;3.55;66.42;98622.03;5006163;28;96936;-87
2023/03/07 06:50:28;;;;;;;33.93;21.63;;;;;;;3.79;66.13;98624.69;5009961;28;100816;-88
2023/03/07 06:52:54;;;;;;;29.33;20.90;;;;;;;3.94;65.17;98600.81;5037285;27;101911;-88
2023/03/07 06:55:20;;;;;;;34.27;21.93;;;;;;;4.28;64.82;98625.63;5015385;28;97737;-89
2023/03/07 06:57:46;;;;;;;32.13;19.97;;;;;;;4.27;64.54;98598.75;5032417;27;97213;-89
2023/03/07 07:00:12;;;;;;;31.03;20.47;;;;;;;4.48;64.12;98619.69;5031169;28;102120;-90
2023/03/07 07:02:38;;;;;;;28.23;20.80;;;;;;;4.57;63.54;98626.28;5010982;28;101559;-89
2023/03/07 07:05:04;;;;;;;28.73;20.13;;;;;;;4.49;63.75;98601.44;5004759;28;97362;-89
2023/03/07 07:07:30;;;;;;;28.20;20.80;;;;;;;4.47;63.39;98594.59;5016546;28;97500;-90
2023/03/07 07:09:57;;;;;;;26.90;19.33;;;;;;;4.64;63.32;98614.78;4998277;28;102206;-89
2023/03/07 07:12:22;;;;;;;29.47;20.17;;;;;;;4.87;63.28;98606.97;5047407;27;97810;-90
2023/03/07 07:14:48;;;;;;;24.77;19.30;;;;;;;5.11;62.79;98593.91;5013078;28;96729;-89
2023/03/07 07:17:14;;;;;;;26.17;19.10;;;;;;;5.21;61.65;98590.91;5014103;28;97216;-88
2023/03/07 07:19:41;;;;;;;28.50;20.27;;;;;;;5.34;61.10;98588.66;5029021;28;101796;-88
2023/03/07 07:22:10;;;;;;;26.37;19.47;;;;;;;5.29;61.23;98580.19;4992931;28;100442;-87
2023/03/07 07:24:39;;;;;;;26.27;18.63;;;;;;;5.44;61.67;98595.19;5047810;27;97153;-89
2023/03/07 07:27:06;;;;;;;24.60;19.40;;;;;;;5.68;61.38;98601.16;5012841;28;97066;-89
2023/03/07 07:29:31;;;;;;;24.63;18.43;;;;;;;5.93;60.67;98601.88;5010791;28;100852;-87
2023/03/07 07:31:58;;;;;;;23.13;18.37;;;;;;;6.04;59.34;98589.28;5031816;27;101423;-88
2023/03/07 07:34:24;;;;;;;26.33;19.70;;;;;;;6.22;59.73;98591.06;5031122;27;97028;-86
2023/03/07 07:36:51;;;;;;;24.50;18.30;;;;;;;6.32;59.45;98597.59;5015500;28;96917;-87
2023/03/07 07:39:18;;;;;;;26.30;18.87;;;;;;;6.38;59.62;98586.03;5011622;28;100877;-86
2023/03/07 07:41:46;;;;;;;26.17;19.17;;;;;;;6.80;59.34;98598.03;5012980;28;100274;-90
2023/03/07 07:44:13;;;;;;;29.20;18.90;;;;;;;7.00;58.08;98579.69;5013917;27;97631;-84
2023/03/07 07:46:50;;;;;;;22.73;17.97;;;;;;;7.28;57.79;98588.84;5027196;28;97323;-83
2023/03/07 07:49:16;;;;;;;25.40;20.43;;;;;;;7.26;57.09;98577.63;5028085;27;101511;-82
2023/03/07 07:51:41;;;;;;;22.77;18.87;;;;;;;7.26;57.26;98585.44;5011813;28;98393;-88
2023/03/07 07:54:08;;;;;;;25.67;19.47;;;;;;;7.45;56.48;98588.88;5048565;27;96986;-89
2023/03/07 07:56:34;;;;;;;22.60;17.00;;;;;;;7.59;55.78;98572.53;5027516;27;97092;-89
2023/03/07 07:58:59;;;;;;;25.67;18.67;;;;;;;7.64;55.71;98564.47;5010938;28;100235;-86
2023/03/07 08:01:26;;;;;;;23.58;19.10;;;;;;;7.70;54.81;98556.31;5013226;28;101547;-89
2023/03/07 08:03:52;;;;;;;22.63;18.23;;;;;;;7.76;55.33;98563.00;5018960;28;97294;-86
2023/03/07 08:06:19;;;;;;;23.23;18.57;;;;;;;8.00;54.44;98540.88;5014255;28;97523;-85
2023/03/07 08:08:45;;;;;;;21.85;18.17;;;;;;;8.33;54.02;98550.47;5026570;28;100552;-89
2023/03/07 08:11:10;;;;;;;27.60;19.33;;;;;;;8.68;53.87;98542.53;5013273;28;101495;-86
2023/03/07 08:13:36;;;;;;;26.10;19.40;;;;;;;8.76;52.77;98545.59;5013940;28;97799;-86
2023/03/07 08:16:13;;;;;;;60.70;32.35;;;;;;;8.78;52.01;98544.53;5031208;27;97634;-89
2023/03/07 08:18:40;;;;;;;21.90;16.85;;;;;;;8.95;51.51;98543.63;5013458;28;103068;-85
2023/03/07 08:21:06;;;;;;;22.05;15.88;;;;;;;8.74;50.64;98518.66;5034145;28;101435;-84
2023/03/07 08:23:32;;;;;;;20.27;15.35;;;;;;;9.17;51.34;98548.53;4999561;28;96734;-83
2023/03/07 08:26:05;;;;;;;19.20;15.02;;;;;;;9.44;50.47;98534.78;5016809;28;97556;-88
2023/03/07 08:28:31;;;;;;;21.45;15.80;;;;;;;9.72;49.12;98531.41;5019515;28;101665;-88
2023/03/07 08:30:57;;;;;;;19.92;14.52;;;;;;;10.09;49.04;98516.09;5036102;27;98207;-88
2023/03/07 08:33:22;;;;;;;25.30;13.88;;;;;;;10.03;47.49;98493.72;5016319;28;97302;-87
2023/03/07 08:35:48;;;;;;;24.00;15.80;;;;;;;10.55;47.37;98513.28;5033737;28;97901;-85
2023/03/07 08:38:13;;;;;;;21.33;15.13;;;;;;;11.00;46.92;98508.72;4996828;28;102216;-81
2023/03/07 08:40:39;;;;;;;20.42;12.98;;;;;;;11.26;44.90;98507.84;5014991;28;100809;-86
2023/03/07 08:43:05;;;;;;;18.13;12.65;;;;;;;11.51;44.88;98511.47;5039037;27;97281;-85
2023/03/07 08:45:30;;;;;;;14.07;11.18;;;;;;;12.00;44.55;98518.72;5032155;27;97304;-83
2023/03/07 08:47:56;;;;;;;13.27;11.85;;;;;;;11.94;42.65;98501.56;5017606;28;101706;-86
2023/03/07 08:50:24;;;;;;;14.43;11.52;;;;;;;12.20;42.14;98501.56;5026370;28;100967;-83
2023/03/07 08:52:49;;;;;;;19.08;12.10;;;;;;;12.74;41.51;98509.16;4998850;28;97059;-83
2023/03/07 08:55:18;;;;;;;16.00;12.18;;;;;;;12.98;40.04;98501.28;5032526;27;97334;-83
2023/03/07 08:57:46;;;;;;;15.63;11.48;;;;;;;13.16;40.02;98500.91;5015152;28;101783;-83
2023/03/07 09:00:13;;;;;;;17.73;12.50;;;;;;;13.49;38.72;98500.22;5033366;27;99661;-85
2023/03/07 09:02:39;;;;;;;14.35;11.77;;;;;;;13.29;38.41;98486.75;5015439;28;97097;-89
2023/03/07 09:05:04;;;;;;;15.52;12.52;;;;;;;13.58;38.21;98489.84;5032024;27;97714;-88
2023/03/07 09:07:30;;;;;;;13.02;11.38;;;;;;;13.77;39.24;98486.63;5022313;28;97954;-84
2023/03/07 09:09:55;;;;;;;14.10;11.55;;;;;;;13.69;38.17;98481.09;5001113;28;101930;-88
2023/03/07 09:12:21;;;;;;;15.50;10.85;;;;;;;13.77;38.69;98485.81;5017594;28;97250;-83
2023/03/07 09:14:47;;;;;;;16.65;10.63;;;;;;;15.26;47.59;98481.97;5017193;28;97063;-82
2023/03/07 09:17:13;;;;;;;15.10;12.23;;;;;;;16.48;38.39;98483.97;5035392;28;97736;-84
2023/03/07 09:19:38;;;;;;;19.48;13.85;;;;;;;15.11;36.60;98468.22;5050761;27;98365;-88
2023/03/07 09:22:04;;;;;;;18.58;13.70;;;;;;;12.77;38.93;98464.19;5002027;28;97063;-88
2023/03/07 09:24:30;;;;;;;14.57;11.88;;;;;;;11.77;40.15;98471.13;5018078;28;96950;-92
2023/03/07 09:26:55;;;;;;;18.65;12.15;;;;;;;10.84;41.93;98458.97;5017222;28;101524;-91
2023/03/07 09:29:21;;;;;;;17.90;12.60;;;;;;;10.38;42.49;98447.00;5018180;27;101263;-86
2023/03/07 09:31:47;;;;;;;17.58;12.25;;;;;;;10.36;43.26;98479.50;5003740;27;97400;-87
2023/03/07 09:34:13;;;;;;;16.58;13.68;;;;;;;9.94;43.38;98441.84;5015965;28;97428;-90
2023/03/07 09:36:38;;;;;;;14.02;11.32;;;;;;;9.66;44.49;98479.38;5016947;28;101181;-87
2023/03/07 09:39:04;;;;;;;16.00;11.75;;;;;;;9.43;45.39;98481.56;5013154;28;101067;-82
2023/03/07 09:41:37;;;;;;;16.13;10.70;;;;;;;9.33;45.72;98484.78;5021682;27;97287;-81
2023/03/07 09:44:28;;;;;;;22.90;15.40;;;;;;;9.32;45.86;98483.97;5029469;28;98219;-79
2023/03/07 09:47:47;;;;;;;13.95;11.80;;;;;;;9.18;45.94;98468.19;5019782;28;101317;-76
2023/03/07 09:50:55;;;;;;;21.10;11.15;;;;;;;10.58;43.47;98476.38;5019465;28;97607;-78
2023/03/07 09:53:35;;;;;;;18.85;10.48;;;;;;;11.89;41.62;98473.91;4965890;28;97562;-79
2023/03/07 09:56:03;;;;;;;17.52;11.13;;;;;;;11.83;40.78;98451.47;5032631;28;97309;-84
2023/03/07 09:58:29;;;;;;;20.98;11.30;;;;;;;10.97;42.86;98452.00;5013150;28;101674;-84
2023/03/07 10:01:00;;;;;;;17.02;10.88;;;;;;;10.46;43.39;98453.53;5031733;28;97794;-82
2023/03/07 10:03:46;;;;;;;17.67;11.35;;;;;;;10.06;44.13;98456.81;5027551;27;96907;-83
2023/03/07 10:06:23;;;;;;;14.82;11.00;;;;;;;9.59;44.83;98457.06;5009302;28;97381;-83
2023/03/07 10:08:49;;;;;;;22.15;12.60;;;;;;;9.24;45.49;98460.00;5032131;28;101279;-83
2023/03/07 10:12:00;;;;;;;14.88;10.60;;;;;;;9.00;46.96;98457.84;4998559;28;100355;-83
2023/03/07 10:14:47;;;;;;;22.25;11.43;;;;;;;8.93;46.93;98448.69;5032436;27;96893;-82
2023/03/07 10:17:35;;;;;;;17.35;11.57;;;;;;;9.07;46.84;98468.81;5044499;27;97257;-80
2023/03/07 10:20:43;;;;;;;16.33;10.98;;;;;;;9.00;47.53;98460.47;5026004;27;98371;-84
2023/03/07 10:23:31;;;;;;;16.13;10.68;;;;;;;8.98;47.15;98456.25;5005364;28;100570;-84
2023/03/07 10:26:21;;;;;;;17.25;10.40;;;;;;;8.97;47.82;98454.56;5010067;28;97663;-83
2023/03/07 10:28:47;;;;;;;18.00;10.82;;;;;;;9.07;46.94;98458.34;5026007;27;96955;-84
2023/03/07 10:31:17;;;;;;;18.20;10.73;;;;;;;9.18;46.74;98461.19;5011146;28;101680;-82
2023/03/07 10:33:46;;;;;;;16.52;10.80;;;;;;;8.89;47.02;98446.31;5047045;27;98378;-85
2023/03/07 10:36:42;;;;;;;23.08;10.77;;;;;;;8.71;47.54;98448.19;5041092;27;97571;-84
2023/03/07 10:39:23;;;;;;;24.17;11.13;;;;;;;8.66;48.07;98455.44;5036162;27;97327;-84
2023/03/07 10:41:49;;;;;;;16.02;10.30;;;;;;;8.57;47.92;98455.03;5006926;28;101593;-85
2023/03/07 10:44:18;;;;;;;32.63;10.75;;;;;;;8.47;47.83;98442.56;5009703;28;101741;-82
2023/03/07 10:46:44;;;;;;;14.30;9.90;;;;;;;8.45;48.36;98457.50;5010648;28;97519;-85
2023/03/07 10:49:25;;;;;;;17.33;11.23;;;;;;;8.31;48.19;98432.91;5010089;28;97028;-85
2023/03/07 10:52:00;;;;;;;17.42;9.07;;;;;;;8.46;48.51;98449.53;5003690;28;98231;-85
2023/03/07 10:54:33;;;;;;;13.40;9.13;;;;;;;8.48;47.67;98447.69;5027162;28;100381;-85
2023/03/07 10:57:11;;;;;;;17.20;9.88;;;;;;;8.35;47.99;98442.28;5028379;28;97170;-85
2023/03/07 10:59:38;;;;;;;11.30;8.30;;;;;;;8.43;48.58;98439.25;5031843;27;97079;-87
2023/03/07 11:02:26;;;;;;;12.80;7.93;;;;;;;8.45;48.21;98445.25;4993815;28;101262;-83
2023/03/07 11:04:51;;;;;;;15.18;9.00;;;;;;;8.39;48.17;98429.91;5021514;28;102309;-77
2023/03/07 11:07:35;;;;;;;17.27;9.00;;;;;;;8.39;49.00;98417.66;5012038;28;96798;-92
2023/03/07 11:10:26;;;;;;;13.73;8.70;;;;;;;8.32;48.94;98428.50;5028225;27;97299;-87
2023/03/07 11:12:54;;;;;;;13.85;8.23;;;;;;;8.33;48.52;98431.06;5015581;28;100702;-87
2023/03/07 11:15:23;;;;;;;21.63;9.57;;;;;;;8.37;48.85;98426.50;5016556;28;101379;-86
2023/03/07 11:17:50;;;;;;;19.85;9.02;;;;;;;8.27;49.25;98423.53;5018075;28;96789;-90
2023/03/07 11:20:25;;;;;;;15.43;8.98;;;;;;;8.04;49.79;98393.44;5014060;28;97490;-84
2023/03/07 11:23:17;;;;;;;14.65;8.88;;;;;;;8.31;49.40;98425.06;5013456;28;101332;-83
2023/03/07 11:25:43;;;;;;;14.33;8.90;;;;;;;8.14;49.63;98420.78;5028554;27;101344;-84
2023/03/07 11:28:32;;;;;;;16.60;8.27;;;;;;;8.06;50.01;98425.56;5007131;28;97484;-84
2023/03/07 11:31:24;;;;;;;15.30;7.90;;;;;;;7.97;50.56;98415.59;5031460;28;97167;-83